Terminal Aerodrome Forecast
Issued by NWS

Home | Current Version | Previous Version | Text Only | Print | Product List | Glossary On
Versions: 1 2 3 4 5 6 7 8 9 10 11 12 13 14 15 16 17 18 19 20 21 22 23 24 25 26 27 28 29 30 31 32 33 34 35 36
000
FTAK31 PAJK 211145
TAFAYA
TAF
PAYA 211145Z 2112/2212 20005KT P6SM VCSH SCT015 OVC050
      TEMPO 2112/2116 VRB04KT 5SM -SHRA BR BKN015 OVC025
     FM211800 21005KT 6SM -SHRA BR BKN025 OVC040
     FM220000 12006KT 5SM -SHRA BR BKN015 OVC025
     AMD LTD TO CLD VIS AND WIND=

USA.gov is the U.S. government's official web portal to all federal, state and local government web resources and services.